Time;durP1;ratioP1;P1;durP2;ratioP2;P2;SDS_P1;SDS_P2;PMS_P1;PMS_P2;Temp;Humidity;BMP_temperature;BMP_pressure;BME280_temperature;BME280_humidity;BME280_pressure;Samples;Min_cycle;Max_cycle;Signal;HPM_P1;HPM_P2
2022/12/21 00:00:21;;;;;;;14.68;8.30;;;;;;;8.22;100.00;100732.66;2055268;28;38840;-74
2022/12/21 00:01:30;;;;;;;15.88;8.45;;;;;;;8.23;100.00;100733.53;2055468;28;34797;-75
2022/12/21 00:02:34;;;;;;;14.48;9.43;;;;;;;8.21;100.00;100733.56;2055320;28;37927;-75
2022/12/21 00:03:36;;;;;;;16.65;9.48;;;;;;;8.24;100.00;100735.31;2055220;28;36755;-74
2022/12/21 00:04:38;;;;;;;15.57;9.18;;;;;;;8.25;100.00;100741.53;2055224;28;33571;-74
2022/12/21 00:05:39;;;;;;;15.82;9.45;;;;;;;8.23;100.00;100733.53;2054801;28;40760;-74
2022/12/21 00:06:41;;;;;;;15.88;9.40;;;;;;;8.24;100.00;100735.31;2055198;28;38630;-75
2022/12/21 00:07:43;;;;;;;15.57;9.38;;;;;;;8.24;100.00;100735.31;2054820;28;41471;-74
2022/12/21 00:08:47;;;;;;;14.73;9.27;;;;;;;8.23;100.00;100736.22;2055209;28;41706;-74
2022/12/21 00:09:51;;;;;;;17.58;10.20;;;;;;;8.24;100.00;100735.31;2054167;28;37994;-75
2022/12/21 00:11:00;;;;;;;16.30;9.23;;;;;;;8.23;100.00;100738.88;2054531;28;39134;-74
2022/12/21 00:12:01;;;;;;;16.77;10.23;;;;;;;8.22;100.00;100735.34;2056148;28;20122;-74
2022/12/21 00:13:03;;;;;;;21.77;10.18;;;;;;;8.23;100.00;100738.88;2054992;28;40063;-73
2022/12/21 00:14:06;;;;;;;18.60;10.57;;;;;;;8.20;100.00;100738.91;2056070;28;37143;-73
2022/12/21 00:15:08;;;;;;;19.90;11.25;;;;;;;8.20;100.00;100739.81;2056310;28;38840;-74
2022/12/21 00:16:15;;;;;;;18.80;11.13;;;;;;;8.19;100.00;100743.38;2056219;28;38615;-73
2022/12/21 00:17:17;;;;;;;21.23;12.13;;;;;;;8.18;100.00;100740.72;2056133;28;34881;-73
2022/12/21 00:18:18;;;;;;;18.00;12.20;;;;;;;8.17;100.00;100734.53;2055805;28;39856;-75
2022/12/21 00:19:20;;;;;;;21.85;11.65;;;;;;;8.19;100.00;100734.50;2056269;28;36152;-74
2022/12/21 00:20:24;;;;;;;16.42;11.63;;;;;;;8.17;100.00;100731.00;2056986;28;20043;-73
2022/12/21 00:21:30;;;;;;;19.33;12.77;;;;;;;8.17;100.00;100733.66;2056365;28;38039;-73
2022/12/21 00:22:34;;;;;;;19.58;13.32;;;;;;;8.17;100.00;100731.84;2056769;28;40166;-74
2022/12/21 00:23:37;;;;;;;22.65;13.77;;;;;;;8.17;100.00;100728.31;2057194;28;20035;-74
2022/12/21 00:24:39;;;;;;;21.90;13.57;;;;;;;8.16;100.00;100723.88;2057185;28;39218;-74
2022/12/21 00:25:40;;;;;;;20.77;13.00;;;;;;;8.16;100.00;100715.88;2055961;28;36689;-72
2022/12/21 00:26:42;;;;;;;22.15;13.80;;;;;;;8.16;100.00;100721.22;2055973;28;39043;-75
2022/12/21 00:27:43;;;;;;;23.40;15.00;;;;;;;8.16;100.00;100715.88;2056078;28;28873;-74
2022/12/21 00:28:45;;;;;;;22.33;15.07;;;;;;;8.14;100.00;100717.69;2046332;28;33368;-75
2022/12/21 00:29:47;;;;;;;25.02;16.02;;;;;;;8.14;100.00;100715.03;2039815;28;37789;-75
2022/12/21 00:30:49;;;;;;;26.00;14.60;;;;;;;8.13;100.00;100710.59;2047677;28;37913;-75
2022/12/21 00:31:53;;;;;;;23.08;14.63;;;;;;;8.13;100.00;100710.59;2048494;28;20067;-75
2022/12/21 00:32:55;;;;;;;24.92;14.75;;;;;;;8.11;100.00;100715.06;2056859;28;20039;-75
2022/12/21 00:33:57;;;;;;;21.90;13.23;;;;;;;8.09;100.00;100704.44;2047956;28;20055;-75
2022/12/21 00:34:58;;;;;;;22.33;13.95;;;;;;;8.09;100.00;100711.56;2039549;28;36490;-75
2022/12/21 00:36:00;;;;;;;23.75;14.95;;;;;;;8.08;100.00;100712.47;2047427;28;33530;-74
2022/12/21 00:37:03;;;;;;;24.02;14.77;;;;;;;8.08;100.00;100720.47;2056487;28;32355;-74
2022/12/21 00:38:04;;;;;;;25.48;14.93;;;;;;;8.07;100.00;100713.38;2056187;28;31349;-72
2022/12/21 00:39:06;;;;;;;23.17;14.23;;;;;;;8.06;100.00;100719.59;2047825;28;31667;-75
2022/12/21 00:40:09;;;;;;;25.45;15.35;;;;;;;8.05;100.00;100731.19;2047865;28;38049;-75
2022/12/21 00:41:13;;;;;;;24.77;14.82;;;;;;;8.05;100.00;100731.19;2056226;28;32631;-73
2022/12/21 00:42:15;;;;;;;26.17;15.13;;;;;;;8.00;100.00;100729.47;2047929;28;32506;-74
2022/12/21 00:43:17;;;;;;;28.52;16.67;;;;;;;8.00;100.00;100728.56;2047588;28;35237;-75
2022/12/21 00:44:18;;;;;;;30.52;16.25;;;;;;;8.01;100.00;100731.22;2048014;28;34127;-75
2022/12/21 00:45:20;;;;;;;24.77;15.20;;;;;;;8.01;100.00;100727.69;2048238;28;20058;-72
2022/12/21 00:46:29;;;;;;;30.00;16.92;;;;;;;8.01;100.00;100738.34;2047889;28;41726;-74
2022/12/21 00:47:31;;;;;;;27.17;15.43;;;;;;;8.01;100.00;100738.34;2056071;28;33635;-74
2022/12/21 00:48:35;;;;;;;30.10;17.20;;;;;;;8.00;100.00;100742.81;2055485;28;42841;-74
2022/12/21 00:49:36;;;;;;;31.42;17.92;;;;;;;8.00;100.00;100748.13;2055722;28;36079;-74
2022/12/21 00:50:38;;;;;;;29.45;16.38;;;;;;;8.00;100.00;100742.81;2055365;28;31282;-74
2022/12/21 00:51:40;;;;;;;31.95;17.52;;;;;;;8.02;100.00;100742.75;2056243;28;41092;-74
2022/12/21 00:52:41;;;;;;;27.48;15.35;;;;;;;8.00;100.00;100737.47;2056353;28;33597;-74
2022/12/21 00:53:44;;;;;;;30.52;16.60;;;;;;;8.01;100.00;100741.88;2056179;28;34779;-74
2022/12/21 00:54:46;;;;;;;29.45;17.73;;;;;;;8.02;100.00;100740.09;2056069;28;36734;-74
2022/12/21 00:55:56;;;;;;;29.88;15.77;;;;;;;8.03;100.00;100734.75;2057320;28;20051;-74
2022/12/21 00:56:57;;;;;;;36.55;17.73;;;;;;;8.01;100.00;100736.56;2055508;28;37389;-74
2022/12/21 00:58:00;;;;;;;30.33;15.38;;;;;;;8.01;100.00;100725.03;2056136;28;20066;-74
2022/12/21 00:59:02;;;;;;;30.85;17.77;;;;;;;8.00;100.00;100721.47;2055827;28;20047;-74
2022/12/21 01:00:04;;;;;;;35.17;19.17;;;;;;;8.00;100.00;100729.47;2048320;28;20051;-73
2022/12/21 01:01:16;;;;;;;35.85;18.70;;;;;;;7.99;100.00;100735.69;2054096;28;38164;-74
2022/12/21 01:02:18;;;;;;;34.80;18.42;;;;;;;7.98;100.00;100739.25;2048147;28;20052;-74
2022/12/21 01:03:21;;;;;;;39.20;18.52;;;;;;;7.98;100.00;100744.59;2047455;28;34755;-74
2022/12/21 01:04:23;;;;;;;38.47;19.35;;;;;;;7.97;100.00;100748.19;2055743;28;31299;-74
2022/12/21 01:05:29;;;;;;;35.83;18.50;;;;;;;7.98;100.00;100749.06;2055818;28;34488;-74
2022/12/21 01:06:34;;;;;;;38.60;18.73;;;;;;;7.97;100.00;100748.19;2056097;28;35669;-74
2022/12/21 01:07:38;;;;;;;37.38;19.27;;;;;;;7.97;100.00;100750.84;2056200;28;20055;-74
2022/12/21 01:08:42;;;;;;;40.63;20.77;;;;;;;7.96;100.00;100754.41;2048081;28;34714;-74
2022/12/21 01:09:44;;;;;;;42.03;20.25;;;;;;;7.98;100.00;100754.38;2047711;28;35670;-74
2022/12/21 01:10:50;;;;;;;41.80;19.40;;;;;;;7.96;100.00;100756.19;2055473;28;30373;-74
2022/12/21 01:11:52;;;;;;;44.55;20.95;;;;;;;7.96;100.00;100765.06;2047254;28;36711;-74
2022/12/21 01:12:57;;;;;;;40.10;20.30;;;;;;;7.94;100.00;100766.00;2048133;28;27050;-74
2022/12/21 01:13:59;;;;;;;39.35;20.30;;;;;;;7.94;100.00;100772.22;2056093;28;36122;-74
2022/12/21 01:15:06;;;;;;;35.97;18.25;;;;;;;7.93;100.00;100767.81;2047973;28;20897;-74
2022/12/21 01:16:23;;;;;;;41.78;19.42;;;;;;;7.93;100.00;100769.56;2048025;28;30164;-74
2022/12/21 01:17:24;;;;;;;38.15;19.83;;;;;;;7.91;100.00;100763.38;2047747;28;30096;-74
2022/12/21 01:18:26;;;;;;;36.88;18.45;;;;;;;7.91;100.00;100769.59;2047538;28;24628;-74
2022/12/21 01:19:31;;;;;;;40.45;19.73;;;;;;;7.92;100.00;100767.81;2048613;28;20076;-74
2022/12/21 01:20:32;;;;;;;42.20;21.52;;;;;;;7.91;100.00;100768.72;2046943;28;38687;-74
2022/12/21 01:21:34;;;;;;;39.72;19.08;;;;;;;7.90;100.00;100772.28;2040135;28;22953;-74
2022/12/21 01:22:36;;;;;;;45.25;21.05;;;;;;;7.90;100.00;100766.97;2047797;28;21030;-74
2022/12/21 01:23:39;;;;;;;40.47;19.95;;;;;;;7.90;100.00;100772.28;2047820;28;32850;-74
2022/12/21 01:24:40;;;;;;;38.45;18.30;;;;;;;7.90;100.00;100775.84;2046914;28;33442;-74
2022/12/21 01:25:44;;;;;;;43.40;20.90;;;;;;;7.87;100.00;100767.00;2049940;28;32905;-74
2022/12/21 01:26:46;;;;;;;42.42;19.85;;;;;;;7.89;100.00;100766.06;2047840;28;36907;-74
2022/12/21 01:27:47;;;;;;;45.70;21.77;;;;;;;7.88;100.00;100771.41;2048166;28;37049;-74
2022/12/21 01:28:49;;;;;;;45.00;20.30;;;;;;;7.88;100.00;100769.66;2047309;28;35864;-74
2022/12/21 01:29:51;;;;;;;50.75;22.30;;;;;;;7.86;100.00;100768.78;2047468;28;31572;-74
2022/12/21 01:30:53;;;;;;;44.92;20.75;;;;;;;7.86;100.00;100771.47;2047148;28;34286;-74
2022/12/21 01:31:54;;;;;;;44.05;21.58;;;;;;;7.88;100.00;100774.97;2048761;28;20043;-74
2022/12/21 01:32:56;;;;;;;47.65;22.02;;;;;;;7.86;100.00;100782.13;2047222;28;21801;-74
2022/12/21 01:33:58;;;;;;;45.75;21.50;;;;;;;7.88;100.00;100782.97;2047657;28;27441;-74
2022/12/21 01:35:00;;;;;;;47.30;22.02;;;;;;;7.87;100.00;100781.19;2055564;28;20957;-74
2022/12/21 01:36:15;;;;;;;51.38;22.63;;;;;;;7.87;100.00;100780.31;2055400;28;30637;-74
2022/12/21 01:37:16;;;;;;;50.92;21.80;;;;;;;7.88;100.00;100790.06;2047151;28;35529;-74
2022/12/21 01:38:18;;;;;;;54.00;23.75;;;;;;;7.88;100.00;100790.06;2047936;28;20047;-74
2022/12/21 01:39:24;;;;;;;54.92;23.40;;;;;;;7.87;100.00;100786.53;2047725;28;20060;-74
2022/12/21 01:40:29;;;;;;;47.47;22.27;;;;;;;7.86;100.00;100792.78;2048443;28;20050;-74
2022/12/21 01:41:31;;;;;;;51.22;22.45;;;;;;;7.87;100.00;100794.53;2046798;28;38925;-74
2022/12/21 01:42:33;;;;;;;50.05;23.08;;;;;;;7.85;100.00;100796.34;2047832;28;22929;-74
2022/12/21 01:43:59;;;;;;;51.83;23.15;;;;;;;7.86;100.00;100798.13;2047886;28;34684;-74
2022/12/21 01:45:22;;;;;;;52.15;22.02;;;;;;;7.86;100.00;100797.22;2047745;28;38132;-73
2022/12/21 01:46:48;;;;;;;44.95;22.08;;;;;;;7.85;100.00;100801.66;2039381;29;35262;-74
2022/12/21 01:47:57;;;;;;;48.10;22.40;;;;;;;7.85;100.00;100791.00;2042790;28;29746;-74
2022/12/21 01:49:12;;;;;;;45.17;20.88;;;;;;;7.84;100.00;100798.13;2039241;29;33440;-74
2022/12/21 01:50:57;;;;;;;50.45;22.23;;;;;;;7.82;100.00;100799.03;2036522;28;20076;-74
2022/12/21 01:52:07;;;;;;;51.45;21.98;;;;;;;7.82;100.00;100801.69;2054834;28;38172;-74
2022/12/21 01:53:33;;;;;;;52.22;22.63;;;;;;;7.80;100.00;100804.38;2055294;28;30738;-74
2022/12/21 01:54:49;;;;;;;48.80;21.95;;;;;;;7.79;100.00;100796.44;2056387;28;20153;-74
2022/12/21 01:56:02;;;;;;;52.28;23.33;;;;;;;7.76;100.00;100802.69;2057133;28;25345;-74
2022/12/21 01:57:08;;;;;;;55.05;24.13;;;;;;;7.74;100.00;100798.28;2048162;28;20134;-74
2022/12/21 01:58:12;;;;;;;58.05;23.98;;;;;;;7.71;100.00;100795.66;2040452;28;23897;-74
2022/12/21 01:59:29;;;;;;;60.58;23.58;;;;;;;7.72;100.00;100800.97;2040669;28;20048;-74
2022/12/21 02:00:31;;;;;;;53.90;22.15;;;;;;;7.72;100.00;100795.63;2050648;28;25049;-74
2022/12/21 02:01:33;;;;;;;50.10;22.65;;;;;;;7.71;100.00;100787.66;2055851;28;28436;-74
2022/12/21 02:02:52;;;;;;;52.03;24.05;;;;;;;7.70;100.00;100788.53;2055337;28;31746;-73
2022/12/21 02:03:54;;;;;;;58.60;23.42;;;;;;;7.69;100.00;100790.34;2055166;28;30841;-73
2022/12/21 02:05:05;;;;;;;59.33;23.00;;;;;;;7.68;100.00;100782.34;2055607;28;35998;-74
2022/12/21 02:06:12;;;;;;;51.20;22.15;;;;;;;7.64;100.00;100782.41;2055051;28;20877;-73
2022/12/21 02:07:16;;;;;;;57.20;23.95;;;;;;;7.64;100.00;100781.53;2055735;28;31678;-74
2022/12/21 02:08:18;;;;;;;56.60;23.40;;;;;;;7.61;100.00;100782.44;2056226;28;20031;-73
2022/12/21 02:09:20;;;;;;;57.92;23.00;;;;;;;7.62;100.00;100783.31;2055384;28;28396;-73
2022/12/21 02:10:22;;;;;;;51.90;24.30;;;;;;;7.61;100.00;100778.91;2047672;28;20044;-73
2022/12/21 02:11:24;;;;;;;56.50;23.38;;;;;;;7.57;100.00;100780.75;2047480;28;32286;-74
2022/12/21 02:12:26;;;;;;;62.13;24.77;;;;;;;7.56;100.00;100786.09;2055295;28;35498;-73
2022/12/21 02:13:30;;;;;;;69.47;24.58;;;;;;;7.56;100.00;100794.06;2056470;28;20916;-74
2022/12/21 02:14:36;;;;;;;60.30;23.98;;;;;;;7.54;100.00;100786.09;2054970;28;30100;-73
2022/12/21 02:16:19;;;;;;;57.97;23.30;;;;;;;7.52;100.00;100790.56;2055811;28;20840;-73
2022/12/21 02:17:44;;;;;;;58.85;23.70;;;;;;;7.49;100.00;100793.25;2054842;28;38025;-73
2022/12/21 02:19:26;;;;;;;60.30;22.80;;;;;;;7.48;100.00;100786.16;2054804;28;38574;-73
2022/12/21 02:20:57;;;;;;;63.03;24.05;;;;;;;7.47;100.00;100788.88;2055990;28;20118;-73
2022/12/21 02:22:31;;;;;;;51.17;22.33;;;;;;;7.45;100.00;100787.09;2055996;28;39444;-74
2022/12/21 02:24:28;;;;;;;58.50;22.10;;;;;;;7.43;100.00;100785.38;2055571;28;20051;-74
2022/12/21 02:25:53;;;;;;;53.67;21.60;;;;;;;7.43;100.00;100782.69;2055535;28;20110;-74
2022/12/21 02:27:29;;;;;;;53.08;20.98;;;;;;;7.42;100.00;100789.78;2055165;28;36912;-74
2022/12/21 02:29:17;;;;;;;61.67;23.42;;;;;;;7.40;100.00;100786.25;2055690;28;35685;-73
2022/12/21 02:30:21;;;;;;;61.78;21.80;;;;;;;7.40;100.00;100796.03;2055832;28;34834;-74
2022/12/21 02:32:16;;;;;;;56.97;21.80;;;;;;;7.40;100.00;100798.72;2054765;28;39692;-74
2022/12/21 02:33:40;;;;;;;64.35;24.15;;;;;;;7.40;100.00;100804.91;2047262;28;28115;-74
2022/12/21 02:34:59;;;;;;;69.55;23.98;;;;;;;7.39;100.00;100797.84;2055127;28;30822;-74
2022/12/21 02:36:45;;;;;;;65.43;22.13;;;;;;;7.40;100.00;100793.38;2055336;28;20181;-74
2022/12/21 02:38:17;;;;;;;67.53;22.90;;;;;;;7.39;100.00;100799.59;2022910;29;20043;-74
2022/12/21 02:39:53;;;;;;;82.97;26.60;;;;;;;7.38;100.00;100789.88;2050687;28;25659;-74
2022/12/21 02:41:35;;;;;;;77.07;25.23;;;;;;;7.40;100.00;100790.72;2017620;28;20110;-74
2022/12/21 02:44:37;;;;;;;80.55;26.70;;;;;;;7.39;100.00;100778.28;2039073;29;20056;-74
2022/12/21 02:45:53;;;;;;;76.53;26.55;;;;;;;7.37;100.00;100772.97;2049863;28;38266;-74
2022/12/21 02:47:12;;;;;;;77.50;26.13;;;;;;;7.35;100.00;100777.44;2055376;28;42041;-74
2022/12/21 02:48:32;;;;;;;66.03;23.83;;;;;;;7.36;100.00;100781.88;2056100;28;31261;-74
2022/12/21 02:49:59;;;;;;;77.35;27.17;;;;;;;7.33;100.00;100787.25;2054808;28;20122;-74
2022/12/21 02:51:09;;;;;;;69.57;24.63;;;;;;;7.33;100.00;100787.25;2047540;28;20138;-74
2022/12/21 02:52:26;;;;;;;69.90;26.60;;;;;;;7.30;100.00;100783.72;2050058;28;20043;-74
2022/12/21 02:53:33;;;;;;;75.72;25.83;;;;;;;7.31;100.00;100788.16;2055512;28;25305;-74
2022/12/21 02:54:39;;;;;;;82.75;25.77;;;;;;;7.30;100.00;100794.38;2047240;28;34057;-74
2022/12/21 02:55:45;;;;;;;76.95;25.73;;;;;;;7.29;100.00;100784.66;2038998;29;20801;-74
2022/12/21 02:56:47;;;;;;;79.72;25.75;;;;;;;7.30;100.00;100786.41;2040765;28;20040;-74
2022/12/21 02:57:49;;;;;;;82.57;24.33;;;;;;;7.30;100.00;100791.72;2054985;28;23724;-74
2022/12/21 02:58:52;;;;;;;83.25;27.48;;;;;;;7.28;100.00;100789.06;2055336;28;20086;-74
2022/12/21 02:59:55;;;;;;;70.70;25.63;;;;;;;7.28;100.00;100793.53;2047146;28;20846;-74
2022/12/21 03:01:29;;;;;;;83.40;25.45;;;;;;;7.28;100.00;100790.88;2047345;28;20902;-74
2022/12/21 03:04:37;;;;;;;72.32;23.42;;;;;;;7.29;100.00;100795.31;2045191;28;20044;-74
2022/12/21 03:06:13;;;;;;;72.70;23.90;;;;;;;7.27;100.00;100797.97;2038894;29;20056;-74
2022/12/21 03:07:18;;;;;;;70.97;23.58;;;;;;;7.26;100.00;100801.53;2027822;29;29956;-74
2022/12/21 03:09:03;;;;;;;67.88;22.42;;;;;;;7.25;100.00;100800.66;2034835;28;20037;-74
2022/12/21 03:10:48;;;;;;;71.10;24.38;;;;;;;7.22;100.00;100803.34;2031309;29;20044;-74
2022/12/21 03:12:06;;;;;;;62.92;22.15;;;;;;;7.23;100.00;100798.88;2021145;29;21705;-74
2022/12/21 03:14:03;;;;;;;69.72;23.42;;;;;;;7.23;100.00;100797.13;2046573;28;20913;-74
2022/12/21 03:15:25;;;;;;;59.40;21.30;;;;;;;7.23;100.00;100793.56;2023161;29;20037;-74
2022/12/21 03:16:33;;;;;;;68.43;22.33;;;;;;;7.23;100.00;100798.88;2036549;28;20087;-74
2022/12/21 03:17:56;;;;;;;74.57;24.98;;;;;;;7.21;100.00;100790.94;2047199;28;36241;-74
2022/12/21 03:19:20;;;;;;;72.35;23.73;;;;;;;7.23;100.00;100790.91;2039702;29;20052;-74
2022/12/21 03:20:38;;;;;;;67.13;23.83;;;;;;;7.20;100.00;100791.84;2036067;29;20049;-74
2022/12/21 03:22:06;;;;;;;60.60;22.55;;;;;;;7.20;100.00;100786.50;2085315;23;20668;-72
2022/12/21 03:23:19;;;;;;;73.63;24.65;;;;;;;7.19;100.00;100784.72;2067655;28;39707;-73
2022/12/21 03:24:53;;;;;;;69.78;23.92;;;;;;;7.17;100.00;100783.00;2067569;28;20129;-73
2022/12/21 03:26:06;;;;;;;66.78;22.92;;;;;;;7.14;100.00;100781.28;2062923;28;40440;-73
2022/12/21 03:27:19;;;;;;;74.82;24.02;;;;;;;7.14;100.00;100785.69;2058194;28;20076;-74
2022/12/21 03:28:29;;;;;;;60.20;22.67;;;;;;;7.14;100.00;100789.25;2057879;28;43353;-73
2022/12/21 03:29:37;;;;;;;69.13;23.15;;;;;;;7.13;100.00;100779.50;2056604;28;37798;-73
2022/12/21 03:30:47;;;;;;;66.95;23.83;;;;;;;7.12;100.00;100783.03;2056900;28;37726;-73
2022/12/21 03:32:03;;;;;;;72.18;23.83;;;;;;;7.09;100.00;100788.41;2056508;28;43300;-72
2022/12/21 03:33:09;;;;;;;62.70;21.70;;;;;;;7.08;100.00;100791.97;2057311;28;37060;-72
2022/12/21 03:34:29;;;;;;;56.97;21.23;;;;;;;7.06;100.00;100786.66;2057640;28;20874;-73
2022/12/21 03:35:42;;;;;;;63.47;20.40;;;;;;;7.05;100.00;100779.59;2057445;28;39364;-74
2022/12/21 03:37:07;;;;;;;68.35;22.05;;;;;;;7.03;100.00;100786.72;2067462;28;20054;-73
2022/12/21 03:38:16;;;;;;;71.22;22.80;;;;;;;7.01;100.00;100792.94;2055996;28;40048;-73
2022/12/21 03:39:23;;;;;;;73.90;21.63;;;;;;;7.00;100.00;100785.84;2062937;28;40532;-75
2022/12/21 03:40:30;;;;;;;73.07;22.23;;;;;;;6.98;100.00;100784.97;2056504;28;41503;-74
2022/12/21 03:41:56;;;;;;;71.00;21.65;;;;;;;6.97;100.00;100789.41;2049573;28;39935;-73
2022/12/21 03:43:05;;;;;;;75.53;21.15;;;;;;;6.97;100.00;100784.09;2050521;28;38955;-74
2022/12/21 03:44:12;;;;;;;75.80;18.80;;;;;;;6.98;100.00;100787.63;2054987;28;37087;-73
2022/12/21 03:45:21;;;;;;;120.50;22.23;;;;;;;6.97;100.00;100788.53;2062837;28;40349;-73
2022/12/21 03:46:34;;;;;;;89.07;21.42;;;;;;;6.97;100.00;100783.22;2063617;28;20042;-73
2022/12/21 03:48:01;;;;;;;97.07;22.80;;;;;;;6.94;100.00;100775.25;2063201;28;39288;-73
2022/12/21 03:49:17;;;;;;;95.45;22.15;;;;;;;6.94;100.00;100773.47;2064835;28;39338;-73
2022/12/21 03:50:25;;;;;;;152.38;23.40;;;;;;;6.93;100.00;100769.06;2056380;28;20044;-73
2022/12/21 03:51:43;;;;;;;102.72;21.70;;;;;;;6.93;100.00;100762.84;2048078;28;42710;-73
2022/12/21 03:53:16;;;;;;;167.30;21.73;;;;;;;6.93;100.00;100765.50;2054560;28;36453;-74
2022/12/21 03:54:55;;;;;;;99.00;20.60;;;;;;;6.90;100.00;100757.56;2042712;28;31006;-73
2022/12/21 03:56:03;;;;;;;108.50;21.42;;;;;;;6.89;100.00;100767.31;2056693;28;38480;-74
2022/12/21 03:57:07;;;;;;;82.63;19.15;;;;;;;6.88;100.00;100762.91;2047895;28;43670;-74
2022/12/21 03:58:10;;;;;;;71.20;19.75;;;;;;;6.87;100.00;100767.34;2042251;28;20948;-73
2022/12/21 03:59:16;;;;;;;99.38;19.90;;;;;;;6.85;100.00;100765.59;2041785;28;20898;-74
2022/12/21 04:00:19;;;;;;;67.13;19.40;;;;;;;6.84;100.00;100770.03;2040711;28;34969;-74
2022/12/21 04:02:06;;;;;;;85.85;19.40;;;;;;;6.84;100.00;100774.50;2049216;28;20056;-73
2022/12/21 04:03:20;;;;;;;104.47;21.60;;;;;;;6.83;100.00;100770.06;2032212;28;20060;-73
2022/12/21 04:04:47;;;;;;;96.97;19.00;;;;;;;6.83;100.00;100770.94;2064152;28;38631;-74
2022/12/21 04:06:05;;;;;;;190.98;21.15;;;;;;;6.82;100.00;100774.50;2064233;28;39612;-74
2022/12/21 04:07:10;;;;;;;122.18;19.90;;;;;;;6.82;100.00;100774.50;2063859;28;38872;-74
2022/12/21 04:08:12;;;;;;;129.35;21.40;;;;;;;6.81;100.00;100766.53;2063389;28;40787;-74
2022/12/21 04:09:15;;;;;;;123.03;21.42;;;;;;;6.80;100.00;100773.66;2056559;28;20043;-74
2022/12/21 04:10:20;;;;;;;194.23;22.73;;;;;;;6.79;100.00;100777.19;2055947;28;37897;-73
2022/12/21 04:12:46;;;;;;;136.95;20.00;;;;;;;6.77;100.00;100765.69;2067093;28;20057;-74
2022/12/21 04:13:48;;;;;;;136.40;20.15;;;;;;;6.77;100.00;100770.13;2067123;28;37697;-74
2022/12/21 04:14:51;;;;;;;118.32;20.52;;;;;;;6.77;100.00;100768.34;2064698;28;36725;-73
2022/12/21 04:16:04;;;;;;;61.90;19.05;;;;;;;6.76;100.00;100766.56;2065126;28;33380;-73
2022/12/21 04:17:06;;;;;;;153.23;20.63;;;;;;;6.75;100.00;100771.91;2063865;28;38488;-73
2022/12/21 04:18:08;;;;;;;182.57;20.95;;;;;;;6.75;100.00;100775.47;2064289;28;34688;-73
2022/12/21 04:20:34;;;;;;;126.90;20.63;;;;;;;6.74;100.00;100776.34;2063952;28;41518;-73
2022/12/21 04:21:36;;;;;;;121.88;20.73;;;;;;;6.74;100.00;100768.38;2063556;28;34773;-73
2022/12/21 04:28:10;;;;;;;177.93;20.60;;;;;;;6.69;100.00;100765.78;2064432;28;41867;-73
2022/12/21 04:29:34;;;;;;;106.45;20.75;;;;;;;6.67;100.00;100770.19;2064980;28;20078;-73
2022/12/21 04:30:42;;;;;;;137.88;20.88;;;;;;;6.68;100.00;100768.44;2064322;28;40815;-73
2022/12/21 04:31:44;;;;;;;100.90;20.13;;;;;;;6.69;100.00;100772.84;2064230;28;37989;-72
2022/12/21 04:32:45;;;;;;;265.15;22.45;;;;;;;6.65;100.00;100772.00;2065286;28;20046;-74
2022/12/21 04:33:47;;;;;;;213.90;21.30;;;;;;;6.65;100.00;100772.00;2064657;28;20074;-72
2022/12/21 04:34:49;;;;;;;162.18;21.38;;;;;;;6.63;100.00;100765.81;2064377;28;34509;-72
2022/12/21 04:38:35;;;;;;;;;;;;;;;6.61;100.00;100759.63;2065175;28;34308;-73
2022/12/21 04:39:36;;;;;;;215.95;21.30;;;;;;;6.61;100.00;100754.31;2064163;28;42473;-72
2022/12/21 04:40:38;;;;;;;196.23;20.25;;;;;;;6.62;100.00;100755.19;2091439;23;36105;-74
2022/12/21 04:41:40;;;;;;;249.35;22.45;;;;;;;6.62;100.00;100755.19;2084022;28;20046;-73
2022/12/21 04:42:41;;;;;;;314.08;22.88;;;;;;;6.61;100.00;100753.44;2079927;28;40323;-73
2022/12/21 04:43:43;;;;;;;321.15;24.13;;;;;;;6.59;100.00;100756.09;2080703;28;39090;-73
2022/12/21 04:44:45;;;;;;;124.38;21.63;;;;;;;6.61;100.00;100751.66;2080418;28;37215;-74
2022/12/21 04:45:47;;;;;;;114.45;21.17;;;;;;;6.62;100.00;100741.88;2080231;28;39866;-74
2022/12/21 04:46:48;;;;;;;260.27;23.70;;;;;;;6.61;100.00;100753.44;2080400;28;39606;-74
2022/12/21 04:47:51;;;;;;;179.90;22.08;;;;;;;6.62;100.00;100752.53;2071802;28;35000;-74
2022/12/21 04:48:53;;;;;;;429.25;25.80;;;;;;;6.61;100.00;100761.41;2069768;28;41085;-74
2022/12/21 04:49:55;;;;;;;196.73;22.30;;;;;;;6.59;100.00;100750.78;2072387;28;38676;-74
2022/12/21 04:51:04;;;;;;;373.67;26.20;;;;;;;6.57;100.00;100752.59;2072012;28;39142;-74
2022/12/21 04:52:06;;;;;;;384.27;23.90;;;;;;;6.57;100.00;100757.00;2073163;28;20053;-74
2022/12/21 04:53:08;;;;;;;363.00;25.90;;;;;;;6.56;100.00;100745.47;2072348;28;31654;-74
2022/12/21 04:54:09;;;;;;;375.63;25.83;;;;;;;6.54;100.00;100751.72;2063677;28;39770;-74
2022/12/21 04:55:11;;;;;;;443.30;25.60;;;;;;;6.54;100.00;100751.72;2063631;28;37024;-74
2022/12/21 04:56:13;;;;;;;310.90;24.20;;;;;;;6.55;100.00;100754.38;2072420;28;38139;-74
2022/12/21 04:57:16;;;;;;;317.92;25.02;;;;;;;6.53;100.00;100753.47;2063616;28;36534;-74
2022/12/21 04:58:18;;;;;;;283.63;24.83;;;;;;;6.52;100.00;100754.41;2063985;28;41238;-74
2022/12/21 04:59:19;;;;;;;271.73;24.55;;;;;;;6.53;100.00;100752.63;2071716;28;35301;-74
2022/12/21 05:00:21;;;;;;;311.17;25.05;;;;;;;6.53;100.00;100756.16;2072418;28;35971;-74
2022/12/21 05:01:23;;;;;;;273.75;24.70;;;;;;;6.52;100.00;100750.88;2072313;28;34980;-74
2022/12/21 05:02:25;;;;;;;264.55;25.58;;;;;;;6.52;100.00;100757.06;2073478;28;20124;-74
2022/12/21 05:03:26;;;;;;;204.07;25.65;;;;;;;6.53;100.00;100756.16;2072109;28;40745;-74
2022/12/21 05:04:28;;;;;;;235.98;23.77;;;;;;;6.52;100.00;100751.75;2072447;28;35311;-74
2022/12/21 05:05:30;;;;;;;244.02;25.00;;;;;;;6.52;100.00;100750.88;2063683;28;27982;-74
2022/12/21 05:06:32;;;;;;;181.23;23.40;;;;;;;6.50;100.00;100751.75;2064027;28;40395;-74
2022/12/21 05:07:34;;;;;;;266.60;24.65;;;;;;;6.49;100.00;100743.78;2072857;28;20038;-74
2022/12/21 05:08:36;;;;;;;309.70;25.20;;;;;;;6.49;100.00;100749.97;2063558;28;40379;-74
2022/12/21 05:09:38;;;;;;;217.43;24.90;;;;;;;6.49;100.00;100749.09;2063796;28;35162;-74
2022/12/21 05:10:41;;;;;;;194.15;24.83;;;;;;;6.49;100.00;100755.28;2072395;28;37265;-74
2022/12/21 05:11:42;;;;;;;230.48;25.35;;;;;;;6.52;100.00;100758.84;2074203;28;39407;-74
2022/12/21 05:12:44;;;;;;;176.35;24.73;;;;;;;6.51;100.00;100757.94;2072987;28;36017;-74
2022/12/21 05:13:48;;;;;;;250.45;24.63;;;;;;;6.50;100.00;100757.06;2071843;28;38116;-74
2022/12/21 05:14:50;;;;;;;182.30;25.63;;;;;;;6.50;100.00;100762.38;2072189;28;40267;-74
2022/12/21 05:15:51;;;;;;;357.60;27.92;;;;;;;6.50;100.00;100754.41;2072102;28;36184;-74
2022/12/21 05:16:55;;;;;;;274.23;24.80;;;;;;;6.50;100.00;100753.53;2072469;28;38345;-74
2022/12/21 05:17:57;;;;;;;268.80;25.88;;;;;;;6.50;100.00;100757.06;2071930;28;37299;-74
2022/12/21 05:18:59;;;;;;;451.60;26.75;;;;;;;6.48;100.00;100753.53;2071471;28;40574;-73
2022/12/21 05:20:01;;;;;;;382.55;27.30;;;;;;;6.50;100.00;100753.53;2071916;28;34688;-73
2022/12/21 05:21:03;;;;;;;343.23;27.02;;;;;;;6.51;100.00;100755.28;2063558;28;36364;-74
2022/12/21 05:22:05;;;;;;;408.35;25.88;;;;;;;6.52;100.00;100758.84;2063403;28;38063;-74
2022/12/21 05:23:06;;;;;;;236.65;27.38;;;;;;;6.50;100.00;100750.88;2071706;28;38171;-74
2022/12/21 05:24:08;;;;;;;284.23;26.95;;;;;;;6.51;100.00;100755.28;2063261;28;39215;-73
2022/12/21 05:25:10;;;;;;;315.13;27.00;;;;;;;6.49;100.00;100757.06;2064211;28;36984;-74
2022/12/21 05:26:14;;;;;;;278.60;25.23;;;;;;;6.49;100.00;100765.06;2071857;28;36692;-72
2022/12/21 05:27:17;;;;;;;342.25;28.55;;;;;;;6.48;100.00;100758.88;2071446;28;32623;-74